sensor_id;sensor_type;location;lat;lon;timestamp;pressure;altitude;pressure_sealevel;temperature;humidity
25722;BME280;13578;53.450;15.496;2023-12-20T00:02:02;98868.72;;;6.62;100.00
25722;BME280;13578;53.450;15.496;2023-12-20T00:05:03;98864.53;;;6.58;100.00
25722;BME280;13578;53.450;15.496;2023-12-20T00:08:04;98867.59;;;6.65;100.00
25722;BME280;13578;53.450;15.496;2023-12-20T00:11:05;98868.19;;;6.68;100.00
25722;BME280;13578;53.450;15.496;2023-12-20T00:14:06;98869.56;;;6.63;100.00
25722;BME280;13578;53.450;15.496;2023-12-20T00:17:06;98862.72;;;6.68;100.00
25722;BME280;13578;53.450;15.496;2023-12-20T00:20:08;98875.06;;;6.73;100.00
25722;BME280;13578;53.450;15.496;2023-12-20T00:23:09;98873.50;;;6.70;100.00
25722;BME280;13578;53.450;15.496;2023-12-20T00:26:09;98878.34;;;6.66;100.00
25722;BME280;13578;53.450;15.496;2023-12-20T00:29:10;98868.03;;;6.70;100.00
25722;BME280;13578;53.450;15.496;2023-12-20T00:32:10;98865.59;;;6.67;100.00
25722;BME280;13578;53.450;15.496;2023-12-20T00:35:13;98868.19;;;6.68;100.00
25722;BME280;13578;53.450;15.496;2023-12-20T00:38:14;98865.59;;;6.67;100.00
25722;BME280;13578;53.450;15.496;2023-12-20T00:41:15;98861.00;;;6.67;100.00
25722;BME280;13578;53.450;15.496;2023-12-20T00:44:16;98862.13;;;6.65;100.00
25722;BME280;13578;53.450;15.496;2023-12-20T00:47:16;98865.41;;;6.59;100.00
25722;BME280;13578;53.450;15.496;2023-12-20T00:50:17;98866.84;;;6.63;100.00
25722;BME280;13578;53.450;15.496;2023-12-20T00:53:17;98878.50;;;6.65;100.00
25722;BME280;13578;53.450;15.496;2023-12-20T00:56:18;98866.00;;;6.62;100.00
25722;BME280;13578;53.450;15.496;2023-12-20T00:59:19;98854.50;;;6.59;100.00
25722;BME280;13578;53.450;15.496;2023-12-20T01:02:19;98868.69;;;6.53;100.00
25722;BME280;13578;53.450;15.496;2023-12-20T01:05:20;98858.97;;;6.60;100.00
25722;BME280;13578;53.450;15.496;2023-12-20T01:08:23;98865.00;;;6.63;100.00
25722;BME280;13578;53.450;15.496;2023-12-20T01:11:23;98855.66;;;6.56;100.00
25722;BME280;13578;53.450;15.496;2023-12-20T01:14:24;98855.16;;;6.51;100.00
25722;BME280;13578;53.450;15.496;2023-12-20T01:17:25;98858.97;;;6.60;100.00
25722;BME280;13578;53.450;15.496;2023-12-20T01:20:25;98858.56;;;6.64;100.00
25722;BME280;13578;53.450;15.496;2023-12-20T01:23:26;98854.63;;;6.57;100.00
25722;BME280;13578;53.450;15.496;2023-12-20T01:26:26;98861.22;;;6.55;100.00
25722;BME280;13578;53.450;15.496;2023-12-20T01:29:27;98857.63;;;6.54;100.00
25722;BME280;13578;53.450;15.496;2023-12-20T01:32:28;98865.81;;;6.54;100.00
25722;BME280;13578;53.450;15.496;2023-12-20T01:35:29;98857.31;;;6.47;100.00
25722;BME280;13578;53.450;15.496;2023-12-20T01:38:29;98855.75;;;6.55;100.00
25722;BME280;13578;53.450;15.496;2023-12-20T01:41:30;98851.78;;;6.59;100.00
25722;BME280;13578;53.450;15.496;2023-12-20T01:44:30;98855.75;;;6.55;100.00
25722;BME280;13578;53.450;15.496;2023-12-20T01:47:31;98859.03;;;6.48;100.00
25722;BME280;13578;53.450;15.496;2023-12-20T01:50:32;98864.03;;;6.43;100.00
25722;BME280;13578;53.450;15.496;2023-12-20T01:53:34;98865.63;;;6.25;100.00
25722;BME280;13578;53.450;15.496;2023-12-20T01:56:35;98868.34;;;6.25;100.00
25722;BME280;13578;53.450;15.496;2023-12-20T01:59:37;98870.31;;;6.13;100.00
25722;BME280;13578;53.450;15.496;2023-12-20T02:02:40;98870.03;;;6.16;100.00
25722;BME280;13578;53.450;15.496;2023-12-20T02:05:41;98874.13;;;6.10;100.00
25722;BME280;13578;53.450;15.496;2023-12-20T02:08:41;98874.72;;;6.14;100.00
25722;BME280;13578;53.450;15.496;2023-12-20T02:11:43;98870.81;;;6.07;100.00
25722;BME280;13578;53.450;15.496;2023-12-20T02:14:43;98875.94;;;6.00;100.00
25722;BME280;13578;53.450;15.496;2023-12-20T02:17:45;98888.03;;;5.96;100.00
25722;BME280;13578;53.450;15.496;2023-12-20T02:20:47;98889.56;;;5.88;100.00
25722;BME280;13578;53.450;15.496;2023-12-20T02:23:47;98897.88;;;5.87;100.00
25722;BME280;13578;53.450;15.496;2023-12-20T02:26:48;98897.72;;;5.88;100.00
25722;BME280;13578;53.450;15.496;2023-12-20T02:29:49;98890.47;;;5.78;100.00
25722;BME280;13578;53.450;15.496;2023-12-20T02:32:51;98898.41;;;5.81;100.00
25722;BME280;13578;53.450;15.496;2023-12-20T02:35:52;98891.59;;;5.75;100.00
25722;BME280;13578;53.450;15.496;2023-12-20T02:38:53;98884.78;;;5.81;100.00
25722;BME280;13578;53.450;15.496;2023-12-20T02:41:54;98897.50;;;5.80;100.00
25722;BME280;13578;53.450;15.496;2023-12-20T02:44:54;98901.25;;;5.79;100.00
25722;BME280;13578;53.450;15.496;2023-12-20T02:47:55;98892.59;;;5.74;100.00
25722;BME280;13578;53.450;15.496;2023-12-20T02:50:56;98892.25;;;5.67;100.00
25722;BME280;13578;53.450;15.496;2023-12-20T02:53:56;98883.81;;;5.70;100.00
25722;BME280;13578;53.450;15.496;2023-12-20T02:56:57;98864.66;;;5.72;100.00
25722;BME280;13578;53.450;15.496;2023-12-20T02:59:58;98867.63;;;5.69;100.00
25722;BME280;13578;53.450;15.496;2023-12-20T03:02:58;98880.88;;;5.62;100.00
25722;BME280;13578;53.450;15.496;2023-12-20T03:06:00;98874.59;;;5.62;100.00
25722;BME280;13578;53.450;15.496;2023-12-20T03:09:01;98871.34;;;5.68;100.00
25722;BME280;13578;53.450;15.496;2023-12-20T03:12:01;98878.06;;;5.64;100.00
25722;BME280;13578;53.450;15.496;2023-12-20T03:15:02;98873.47;;;5.64;100.00
25722;BME280;13578;53.450;15.496;2023-12-20T03:18:03;98871.47;;;5.66;100.00
25722;BME280;13578;53.450;15.496;2023-12-20T03:21:04;98882.09;;;5.69;100.00
25722;BME280;13578;53.450;15.496;2023-12-20T03:24:05;98872.59;;;5.64;100.00
25722;BME280;13578;53.450;15.496;2023-12-20T03:27:06;98872.47;;;5.65;100.00
25722;BME280;13578;53.450;15.496;2023-12-20T03:30:06;98873.22;;;5.67;100.00
25722;BME280;13578;53.450;15.496;2023-12-20T03:33:07;98868.75;;;5.66;100.00
25722;BME280;13578;53.450;15.496;2023-12-20T03:36:08;98862.94;;;5.60;100.00
25722;BME280;13578;53.450;15.496;2023-12-20T03:39:09;98856.06;;;5.55;100.00
25722;BME280;13578;53.450;15.496;2023-12-20T03:42:10;98850.47;;;5.57;100.00
25722;BME280;13578;53.450;15.496;2023-12-20T03:45:11;98857.03;;;5.54;100.00
25722;BME280;13578;53.450;15.496;2023-12-20T03:48:11;98859.03;;;5.52;100.00
25722;BME280;13578;53.450;15.496;2023-12-20T03:51:12;98848.94;;;5.43;100.00
25722;BME280;13578;53.450;15.496;2023-12-20T03:54:13;98854.16;;;5.35;100.00
25722;BME280;13578;53.450;15.496;2023-12-20T03:57:13;98854.53;;;5.30;100.00
25722;BME280;13578;53.450;15.496;2023-12-20T04:00:14;98852.66;;;5.31;100.00
25722;BME280;13578;53.450;15.496;2023-12-20T04:03:15;98848.59;;;5.25;100.00
25722;BME280;13578;53.450;15.496;2023-12-20T04:06:17;98847.16;;;5.09;100.00
25722;BME280;13578;53.450;15.496;2023-12-20T04:09:18;98850.50;;;5.02;100.00
25722;BME280;13578;53.450;15.496;2023-12-20T04:12:18;98861.75;;;5.08;100.00
25722;BME280;13578;53.450;15.496;2023-12-20T04:15:19;98859.66;;;5.12;100.00
25722;BME280;13578;53.450;15.496;2023-12-20T04:18:20;98856.03;;;5.12;100.00
25722;BME280;13578;53.450;15.496;2023-12-20T04:21:20;98853.97;;;5.04;100.00
25722;BME280;13578;53.450;15.496;2023-12-20T04:24:21;98865.69;;;5.16;100.00
25722;BME280;13578;53.450;15.496;2023-12-20T04:27:22;98866.19;;;5.09;100.00
25722;BME280;13578;53.450;15.496;2023-12-20T04:30:23;98849.63;;;5.13;100.00
25722;BME280;13578;53.450;15.496;2023-12-20T04:33:24;98848.63;;;5.14;100.00
25722;BME280;13578;53.450;15.496;2023-12-20T04:36:24;98849.75;;;5.00;100.00
25722;BME280;13578;53.450;15.496;2023-12-20T04:39:27;98839.91;;;4.99;100.00
25722;BME280;13578;53.450;15.496;2023-12-20T04:42:27;98838.16;;;4.98;100.00
25722;BME280;13578;53.450;15.496;2023-12-20T04:45:28;98835.06;;;4.91;100.00
25722;BME280;13578;53.450;15.496;2023-12-20T04:48:28;98814.44;;;4.88;100.00
25722;BME280;13578;53.450;15.496;2023-12-20T04:51:29;98809.03;;;4.77;100.00
25722;BME280;13578;53.450;15.496;2023-12-20T04:54:30;98807.75;;;4.92;100.00
25722;BME280;13578;53.450;15.496;2023-12-20T04:57:30;98813.19;;;4.92;100.00
25722;BME280;13578;53.450;15.496;2023-12-20T05:00:31;98809.03;;;4.77;100.00
25722;BME280;13578;53.450;15.496;2023-12-20T05:03:31;98813.44;;;4.89;100.00
25722;BME280;13578;53.450;15.496;2023-12-20T05:06:32;98814.06;;;4.82;100.00
25722;BME280;13578;53.450;15.496;2023-12-20T05:09:33;98787.91;;;4.81;100.00
25722;BME280;13578;53.450;15.496;2023-12-20T05:12:33;98802.56;;;4.89;100.00
25722;BME280;13578;53.450;15.496;2023-12-20T05:15:34;98799.63;;;4.81;100.00
25722;BME280;13578;53.450;15.496;2023-12-20T05:18:35;98802.72;;;4.88;100.00
25722;BME280;13578;53.450;15.496;2023-12-20T05:21:36;98782.47;;;4.81;100.00
25722;BME280;13578;53.450;15.496;2023-12-20T05:24:36;98782.56;;;4.79;100.00
25722;BME280;13578;53.450;15.496;2023-12-20T05:27:37;98789.59;;;4.93;100.00
25722;BME280;13578;53.450;15.496;2023-12-20T05:30:38;98788.97;;;4.89;100.00
25722;BME280;13578;53.450;15.496;2023-12-20T05:33:38;98792.56;;;4.90;100.00
25722;BME280;13578;53.450;15.496;2023-12-20T05:36:39;98797.13;;;4.89;100.00
25722;BME280;13578;53.450;15.496;2023-12-20T05:39:39;98799.84;;;4.89;100.00
25722;BME280;13578;53.450;15.496;2023-12-20T05:42:40;98793.44;;;4.90;100.00
25722;BME280;13578;53.450;15.496;2023-12-20T05:45:41;98789.34;;;4.85;100.00
25722;BME280;13578;53.450;15.496;2023-12-20T05:48:42;98785.03;;;4.82;100.00
25722;BME280;13578;53.450;15.496;2023-12-20T05:51:43;98786.03;;;4.81;100.00
25722;BME280;13578;53.450;15.496;2023-12-20T05:54:43;98785.78;;;4.73;100.00
25722;BME280;13578;53.450;15.496;2023-12-20T05:57:44;98774.44;;;4.68;100.00
25722;BME280;13578;53.450;15.496;2023-12-20T06:00:45;98778.38;;;4.75;100.00
25722;BME280;13578;53.450;15.496;2023-12-20T06:03:45;98778.16;;;4.67;100.00
25722;BME280;13578;53.450;15.496;2023-12-20T06:06:46;98771.97;;;4.65;100.00
25722;BME280;13578;53.450;15.496;2023-12-20T06:09:47;98766.78;;;4.50;100.00
25722;BME280;13578;53.450;15.496;2023-12-20T06:12:47;98765.56;;;4.54;100.00
25722;BME280;13578;53.450;15.496;2023-12-20T06:15:50;98764.81;;;4.52;100.00
25722;BME280;13578;53.450;15.496;2023-12-20T06:18:51;98757.91;;;4.48;100.00
25722;BME280;13578;53.450;15.496;2023-12-20T06:21:52;98768.53;;;4.51;100.00
25722;BME280;13578;53.450;15.496;2023-12-20T06:24:52;98755.78;;;4.52;100.00
25722;BME280;13578;53.450;15.496;2023-12-20T06:27:53;98752.97;;;4.42;100.00
25722;BME280;13578;53.450;15.496;2023-12-20T06:30:54;98744.56;;;4.45;100.00
25722;BME280;13578;53.450;15.496;2023-12-20T06:33:55;98751.47;;;4.49;100.00
25722;BME280;13578;53.450;15.496;2023-12-20T06:36:57;98745.81;;;4.29;100.00
25722;BME280;13578;53.450;15.496;2023-12-20T06:39:58;98753.72;;;4.44;100.00
25722;BME280;13578;53.450;15.496;2023-12-20T06:42:58;98732.63;;;4.36;100.00
25722;BME280;13578;53.450;15.496;2023-12-20T06:46:00;98728.78;;;4.39;100.00
25722;BME280;13578;53.450;15.496;2023-12-20T06:49:01;98721.00;;;4.34;100.00
25722;BME280;13578;53.450;15.496;2023-12-20T06:52:02;98731.97;;;4.44;100.00
25722;BME280;13578;53.450;15.496;2023-12-20T06:55:03;98727.28;;;4.35;100.00
25722;BME280;13578;53.450;15.496;2023-12-20T06:58:04;98707.28;;;4.36;100.00
25722;BME280;13578;53.450;15.496;2023-12-20T07:01:05;98708.41;;;4.33;100.00
25722;BME280;13578;53.450;15.496;2023-12-20T07:04:11;98705.94;;;4.30;100.00
25722;BME280;13578;53.450;15.496;2023-12-20T07:07:11;98700.91;;;4.25;100.00
25722;BME280;13578;53.450;15.496;2023-12-20T07:10:13;98707.56;;;4.33;100.00
25722;BME280;13578;53.450;15.496;2023-12-20T07:13:13;98712.72;;;4.36;100.00
25722;BME280;13578;53.450;15.496;2023-12-20T07:16:14;98706.94;;;4.29;100.00
25722;BME280;13578;53.450;15.496;2023-12-20T07:19:15;98705.22;;;4.28;100.00
25722;BME280;13578;53.450;15.496;2023-12-20T07:22:15;98703.59;;;4.37;100.00
25722;BME280;13578;53.450;15.496;2023-12-20T07:25:16;98702.97;;;4.33;100.00
25722;BME280;13578;53.450;15.496;2023-12-20T07:28:17;98696.56;;;4.34;100.00
25722;BME280;13578;53.450;15.496;2023-12-20T07:31:18;98694.22;;;4.29;100.00
25722;BME280;13578;53.450;15.496;2023-12-20T07:34:19;98697.16;;;4.26;100.00
25722;BME280;13578;53.450;15.496;2023-12-20T07:37:19;98703.00;;;4.22;100.00
25722;BME280;13578;53.450;15.496;2023-12-20T07:40:20;98698.66;;;4.19;100.00
25722;BME280;13578;53.450;15.496;2023-12-20T07:43:21;98704.34;;;4.27;100.00
25722;BME280;13578;53.450;15.496;2023-12-20T07:46:22;98688.16;;;4.26;100.00
25722;BME280;13578;53.450;15.496;2023-12-20T07:49:25;98683.47;;;4.17;100.00
25722;BME280;13578;53.450;15.496;2023-12-20T07:52:26;98681.88;;;4.25;100.00
25722;BME280;13578;53.450;15.496;2023-12-20T07:55:27;98693.00;;;4.22;100.00
25722;BME280;13578;53.450;15.496;2023-12-20T07:58:27;98692.25;;;4.32;100.00
25722;BME280;13578;53.450;15.496;2023-12-20T08:01:30;98693.47;;;4.39;100.00
25722;BME280;13578;53.450;15.496;2023-12-20T08:04:30;98696.41;;;4.36;100.00
25722;BME280;13578;53.450;15.496;2023-12-20T08:07:31;98693.56;;;4.37;100.00
25722;BME280;13578;53.450;15.496;2023-12-20T08:10:32;98685.94;;;4.42;100.00
25722;BME280;13578;53.450;15.496;2023-12-20T08:13:32;98687.66;;;4.32;100.00
25722;BME280;13578;53.450;15.496;2023-12-20T08:16:33;98678.91;;;4.28;100.00
25722;BME280;13578;53.450;15.496;2023-12-20T08:19:34;98691.59;;;4.39;100.00
25722;BME280;13578;53.450;15.496;2023-12-20T08:22:34;98695.06;;;4.41;100.00
25722;BME280;13578;53.450;15.496;2023-12-20T08:25:35;98683.97;;;4.33;100.00
25722;BME280;13578;53.450;15.496;2023-12-20T08:28:36;98680.50;;;4.31;100.00
25722;BME280;13578;53.450;15.496;2023-12-20T08:31:37;98682.59;;;4.27;100.00
25722;BME280;13578;53.450;15.496;2023-12-20T08:34:38;98677.53;;;4.34;100.00
25722;BME280;13578;53.450;15.496;2023-12-20T08:37:39;98677.41;;;4.36;100.00
25722;BME280;13578;53.450;15.496;2023-12-20T08:40:39;98664.47;;;4.28;100.00
25722;BME280;13578;53.450;15.496;2023-12-20T08:43:40;98664.56;;;4.38;100.00
25722;BME280;13578;53.450;15.496;2023-12-20T08:46:41;98659.75;;;4.41;100.00
25722;BME280;13578;53.450;15.496;2023-12-20T08:49:42;98659.75;;;4.41;100.00
25722;BME280;13578;53.450;15.496;2023-12-20T08:52:42;98660.34;;;4.45;100.00
25722;BME280;13578;53.450;15.496;2023-12-20T08:55:43;98650.47;;;4.44;100.00
25722;BME280;13578;53.450;15.496;2023-12-20T08:58:45;98649.34;;;4.47;100.00
25722;BME280;13578;53.450;15.496;2023-12-20T09:01:46;98643.06;;;4.46;100.00
25722;BME280;13578;53.450;15.496;2023-12-20T09:04:48;98659.88;;;4.40;100.00
25722;BME280;13578;53.450;15.496;2023-12-20T09:07:49;98645.78;;;4.35;100.00
25722;BME280;13578;53.450;15.496;2023-12-20T09:10:50;98645.28;;;4.41;100.00
25722;BME280;13578;53.450;15.496;2023-12-20T09:13:50;98636.41;;;4.39;100.00
25722;BME280;13578;53.450;15.496;2023-12-20T09:16:51;98646.31;;;4.40;100.00
25722;BME280;13578;53.450;15.496;2023-12-20T09:19:52;98642.56;;;4.41;100.00
25722;BME280;13578;53.450;15.496;2023-12-20T09:22:54;98635.81;;;4.24;100.00
25722;BME280;13578;53.450;15.496;2023-12-20T09:25:54;98634.31;;;4.31;100.00
25722;BME280;13578;53.450;15.496;2023-12-20T09:28:55;98629.25;;;4.26;100.00
25722;BME280;13578;53.450;15.496;2023-12-20T09:31:55;98618.91;;;4.32;100.00
25722;BME280;13578;53.450;15.496;2023-12-20T09:34:57;98624.06;;;4.35;100.00
25722;BME280;13578;53.450;15.496;2023-12-20T09:37:58;98599.91;;;4.32;100.00
25722;BME280;13578;53.450;15.496;2023-12-20T09:40:58;98610.25;;;4.26;100.00
25722;BME280;13578;53.450;15.496;2023-12-20T09:44:02;98611.47;;;4.34;100.00
25722;BME280;13578;53.450;15.496;2023-12-20T09:47:04;98595.19;;;4.34;100.00
25722;BME280;13578;53.450;15.496;2023-12-20T09:50:05;98598.81;;;4.11;100.00
25722;BME280;13578;53.450;15.496;2023-12-20T09:53:08;98592.00;;;4.28;100.00
25722;BME280;13578;53.450;15.496;2023-12-20T09:56:10;98583.00;;;4.17;100.00
25722;BME280;13578;53.450;15.496;2023-12-20T09:59:12;98587.31;;;4.19;100.00
25722;BME280;13578;53.450;15.496;2023-12-20T10:02:13;98576.72;;;4.16;100.00
25722;BME280;13578;53.450;15.496;2023-12-20T10:05:17;98579.16;;;4.31;100.00
25722;BME280;13578;53.450;15.496;2023-12-20T10:08:21;98569.50;;;4.38;100.00
25722;BME280;13578;53.450;15.496;2023-12-20T10:11:23;98563.84;;;4.29;100.00
25722;BME280;13578;53.450;15.496;2023-12-20T10:14:23;98563.31;;;4.36;100.00
25722;BME280;13578;53.450;15.496;2023-12-20T10:17:24;98548.63;;;4.38;100.00
25722;BME280;13578;53.450;15.496;2023-12-20T10:20:30;98533.19;;;4.39;100.00
25722;BME280;13578;53.450;15.496;2023-12-20T10:23:31;98527.63;;;4.40;100.00
25722;BME280;13578;53.450;15.496;2023-12-20T10:26:32;98538.84;;;4.47;100.00
25722;BME280;13578;53.450;15.496;2023-12-20T10:29:36;98535.25;;;4.47;100.00
25722;BME280;13578;53.450;15.496;2023-12-20T10:32:37;98523.38;;;4.48;100.00
25722;BME280;13578;53.450;15.496;2023-12-20T10:35:38;98520.31;;;4.41;100.00
25722;BME280;13578;53.450;15.496;2023-12-20T10:38:42;98509.97;;;4.35;100.00
25722;BME280;13578;53.450;15.496;2023-12-20T10:41:43;98512.78;;;4.44;100.00
25722;BME280;13578;53.450;15.496;2023-12-20T10:44:46;98507.69;;;4.51;100.00
25722;BME280;13578;53.450;15.496;2023-12-20T10:47:49;98488.66;;;4.51;100.00
25722;BME280;13578;53.450;15.496;2023-12-20T10:50:50;98498.09;;;4.47;100.00
25722;BME280;13578;53.450;15.496;2023-12-20T10:53:52;98491.25;;;4.53;100.00
25722;BME280;13578;53.450;15.496;2023-12-20T10:56:54;98486.09;;;4.50;100.00
25722;BME280;13578;53.450;15.496;2023-12-20T11:00:00;98475.34;;;4.48;100.00
25722;BME280;13578;53.450;15.496;2023-12-20T11:03:05;98471.78;;;4.48;100.00
25722;BME280;13578;53.450;15.496;2023-12-20T11:07:00;98470.00;;;4.58;100.00
25722;BME280;13578;53.450;15.496;2023-12-20T11:09:40;98456.53;;;4.56;100.00
25722;BME280;13578;53.450;15.496;2023-12-20T11:13:12;98468.88;;;4.60;100.00
25722;BME280;13578;53.450;15.496;2023-12-20T11:16:17;98462.56;;;4.60;100.00
25722;BME280;13578;53.450;15.496;2023-12-20T11:19:17;98454.28;;;4.61;100.00
25722;BME280;13578;53.450;15.496;2023-12-20T11:22:21;98455.28;;;4.60;100.00
25722;BME280;13578;53.450;15.496;2023-12-20T11:25:21;98433.19;;;4.54;100.00
25722;BME280;13578;53.450;15.496;2023-12-20T11:28:24;98451.44;;;4.63;100.00
25722;BME280;13578;53.450;15.496;2023-12-20T11:31:27;98426.53;;;4.58;100.00
25722;BME280;13578;53.450;15.496;2023-12-20T11:34:31;98425.84;;;4.66;100.00
25722;BME280;13578;53.450;15.496;2023-12-20T11:37:37;98439.22;;;4.79;100.00
25722;BME280;13578;53.450;15.496;2023-12-20T11:40:38;98429.59;;;4.74;100.00
25722;BME280;13578;53.450;15.496;2023-12-20T11:43:39;98434.91;;;4.76;100.00
25722;BME280;13578;53.450;15.496;2023-12-20T11:46:39;98429.00;;;4.71;100.00
25722;BME280;13578;53.450;15.496;2023-12-20T11:49:40;98435.38;;;4.81;100.00
25722;BME280;13578;53.450;15.496;2023-12-20T11:52:41;98432.50;;;4.83;100.00
25722;BME280;13578;53.450;15.496;2023-12-20T11:55:41;98420.50;;;4.85;100.00
25722;BME280;13578;53.450;15.496;2023-12-20T11:58:42;98420.56;;;4.95;100.00
25722;BME280;13578;53.450;15.496;2023-12-20T12:01:49;98411.09;;;4.89;100.00
25722;BME280;13578;53.450;15.496;2023-12-20T12:04:50;98403.53;;;4.93;100.00
25722;BME280;13578;53.450;15.496;2023-12-20T12:07:51;98391.09;;;5.00;100.00
25722;BME280;13578;53.450;15.496;2023-12-20T12:10:52;98381.47;;;4.96;100.00
25722;BME280;13578;53.450;15.496;2023-12-20T12:13:53;98383.09;;;4.99;100.00
25722;BME280;13578;53.450;15.496;2023-12-20T12:16:53;98380.81;;;5.04;100.00
25722;BME280;13578;53.450;15.496;2023-12-20T12:20:05;98381.06;;;5.01;100.00
25722;BME280;13578;53.450;15.496;2023-12-20T12:23:06;98364.91;;;4.99;100.00
25722;BME280;13578;53.450;15.496;2023-12-20T12:26:07;98356.75;;;4.99;100.00
25722;BME280;13578;53.450;15.496;2023-12-20T12:29:09;98354.84;;;4.90;100.00
25722;BME280;13578;53.450;15.496;2023-12-20T12:32:10;98344.56;;;4.93;100.00
25722;BME280;13578;53.450;15.496;2023-12-20T12:35:10;98349.59;;;5.08;100.00
25722;BME280;13578;53.450;15.496;2023-12-20T12:38:11;98346.47;;;5.03;100.00
25722;BME280;13578;53.450;15.496;2023-12-20T12:41:15;98328.72;;;5.08;100.00
25722;BME280;13578;53.450;15.496;2023-12-20T12:44:16;98331.00;;;5.03;100.00
25722;BME280;13578;53.450;15.496;2023-12-20T12:47:18;98320.41;;;5.00;100.00
25722;BME280;13578;53.450;15.496;2023-12-20T12:50:19;98302.94;;;5.03;100.00
25722;BME280;13578;53.450;15.496;2023-12-20T12:53:19;98304.38;;;5.07;100.00
25722;BME280;13578;53.450;15.496;2023-12-20T12:56:20;98289.22;;;5.04;100.00
25722;BME280;13578;53.450;15.496;2023-12-20T12:59:22;98281.19;;;5.03;100.00
25722;BME280;13578;53.450;15.496;2023-12-20T13:02:23;98286.22;;;5.07;100.00
25722;BME280;13578;53.450;15.496;2023-12-20T13:05:23;98269.31;;;4.94;100.00
25722;BME280;13578;53.450;15.496;2023-12-20T13:08:24;98270.88;;;4.97;100.00
25722;BME280;13578;53.450;15.496;2023-12-20T13:11:25;98260.59;;;4.90;100.00
25722;BME280;13578;53.450;15.496;2023-12-20T13:14:25;98242.97;;;4.85;100.00
25722;BME280;13578;53.450;15.496;2023-12-20T13:17:26;98247.09;;;4.89;100.00
25722;BME280;13578;53.450;15.496;2023-12-20T13:20:26;98227.94;;;4.81;100.00
25722;BME280;13578;53.450;15.496;2023-12-20T13:23:27;98234.50;;;4.78;100.00
25722;BME280;13578;53.450;15.496;2023-12-20T13:26:28;98229.78;;;4.70;100.00
25722;BME280;13578;53.450;15.496;2023-12-20T13:29:28;98250.94;;;4.67;100.00
25722;BME280;13578;53.450;15.496;2023-12-20T13:32:29;98239.88;;;4.58;100.00
25722;BME280;13578;53.450;15.496;2023-12-20T13:35:30;98240.75;;;4.59;100.00
25722;BME280;13578;53.450;15.496;2023-12-20T13:38:30;98233.56;;;4.48;100.00
25722;BME280;13578;53.450;15.496;2023-12-20T13:41:31;98227.72;;;4.53;100.00
25722;BME280;13578;53.450;15.496;2023-12-20T13:44:32;98232.72;;;4.57;100.00
25722;BME280;13578;53.450;15.496;2023-12-20T13:47:33;98233.72;;;4.56;100.00
25722;BME280;13578;53.450;15.496;2023-12-20T13:50:34;98231.31;;;4.53;100.00
25722;BME280;13578;53.450;15.496;2023-12-20T13:53:34;98220.44;;;4.53;100.00
25722;BME280;13578;53.450;15.496;2023-12-20T13:56:35;98238.91;;;4.59;100.00
25722;BME280;13578;53.450;15.496;2023-12-20T13:59:36;98213.28;;;4.52;100.00
25722;BME280;13578;53.450;15.496;2023-12-20T14:02:37;98230.56;;;4.51;100.00
25722;BME280;13578;53.450;15.496;2023-12-20T14:05:38;98226.28;;;4.49;100.00
25722;BME280;13578;53.450;15.496;2023-12-20T14:08:39;98213.44;;;4.51;100.00
25722;BME280;13578;53.450;15.496;2023-12-20T14:11:40;98227.88;;;4.61;100.00
25722;BME280;13578;53.450;15.496;2023-12-20T14:14:41;98232.47;;;4.60;100.00
25722;BME280;13578;53.450;15.496;2023-12-20T14:17:43;98234.72;;;4.55;100.00
25722;BME280;13578;53.450;15.496;2023-12-20T14:20:44;98249.19;;;4.56;100.00
25722;BME280;13578;53.450;15.496;2023-12-20T14:23:45;98271.50;;;4.59;100.00
25722;BME280;13578;53.450;15.496;2023-12-20T14:26:46;98272.75;;;4.55;100.00
25722;BME280;13578;53.450;15.496;2023-12-20T14:29:47;98277.34;;;4.55;100.00
25722;BME280;13578;53.450;15.496;2023-12-20T14:32:47;98265.47;;;4.46;100.00
25722;BME280;13578;53.450;15.496;2023-12-20T14:35:49;98282.06;;;4.53;100.00
25722;BME280;13578;53.450;15.496;2023-12-20T14:38:49;98281.06;;;4.54;100.00
25722;BME280;13578;53.450;15.496;2023-12-20T14:41:50;98292.97;;;4.63;100.00
25722;BME280;13578;53.450;15.496;2023-12-20T14:44:51;98286.53;;;4.64;100.00
25722;BME280;13578;53.450;15.496;2023-12-20T14:47:52;98299.09;;;4.55;100.00
25722;BME280;13578;53.450;15.496;2023-12-20T14:50:53;98288.63;;;4.50;100.00
25722;BME280;13578;53.450;15.496;2023-12-20T14:53:54;98315.63;;;4.52;100.00
25722;BME280;13578;53.450;15.496;2023-12-20T14:56:55;98318.06;;;4.45;100.00
25722;BME280;13578;53.450;15.496;2023-12-20T14:59:56;98330.38;;;4.49;100.00
25722;BME280;13578;53.450;15.496;2023-12-20T15:02:57;98339.06;;;4.43;100.00
25722;BME280;13578;53.450;15.496;2023-12-20T15:05:58;98336.78;;;4.48;100.00
25722;BME280;13578;53.450;15.496;2023-12-20T15:08:59;98338.81;;;4.46;100.00
25722;BME280;13578;53.450;15.496;2023-12-20T15:12:00;98336.88;;;4.37;100.00
25722;BME280;13578;53.450;15.496;2023-12-20T15:15:01;98347.00;;;4.35;100.00
25722;BME280;13578;53.450;15.496;2023-12-20T15:18:02;98339.84;;;4.34;100.00
25722;BME280;13578;53.450;15.496;2023-12-20T15:21:06;98354.47;;;4.33;100.00
25722;BME280;13578;53.450;15.496;2023-12-20T15:24:06;98358.72;;;4.25;100.00
25722;BME280;13578;53.450;15.496;2023-12-20T15:27:13;98344.69;;;4.30;100.00
25722;BME280;13578;53.450;15.496;2023-12-20T15:30:14;98357.44;;;4.29;100.00
25722;BME280;13578;53.450;15.496;2023-12-20T15:33:15;98369.03;;;4.32;100.00
25722;BME280;13578;53.450;15.496;2023-12-20T15:36:15;98364.72;;;4.29;100.00
25722;BME280;13578;53.450;15.496;2023-12-20T15:39:16;98368.97;;;4.22;100.00
25722;BME280;13578;53.450;15.496;2023-12-20T15:42:17;98362.66;;;4.21;100.00
25722;BME280;13578;53.450;15.496;2023-12-20T15:45:18;98373.88;;;4.28;100.00
25722;BME280;13578;53.450;15.496;2023-12-20T15:48:18;98382.94;;;4.17;100.00